sensor_id;sensor_type;location;lat;lon;timestamp;temperature;humidity
21090;DHT22;10703;51.020;6.128;2023-08-06T00:00:45;14.60;99.90
21090;DHT22;10703;51.020;6.128;2023-08-06T00:03:11;14.60;99.90
21090;DHT22;10703;51.020;6.128;2023-08-06T00:05:41;14.70;99.90
21090;DHT22;10703;51.020;6.128;2023-08-06T00:08:09;14.80;99.90
21090;DHT22;10703;51.020;6.128;2023-08-06T00:10:35;14.70;99.90
21090;DHT22;10703;51.020;6.128;2023-08-06T00:13:02;14.70;99.90
21090;DHT22;10703;51.020;6.128;2023-08-06T00:15:29;14.90;99.90
21090;DHT22;10703;51.020;6.128;2023-08-06T00:17:55;15.00;99.90
21090;DHT22;10703;51.020;6.128;2023-08-06T00:20:22;15.10;99.90
21090;DHT22;10703;51.020;6.128;2023-08-06T00:22:49;15.10;99.90
21090;DHT22;10703;51.020;6.128;2023-08-06T00:25:15;15.10;99.90
21090;DHT22;10703;51.020;6.128;2023-08-06T00:27:42;15.10;99.90
21090;DHT22;10703;51.020;6.128;2023-08-06T00:30:09;15.20;99.90
21090;DHT22;10703;51.020;6.128;2023-08-06T00:32:36;15.00;99.90
21090;DHT22;10703;51.020;6.128;2023-08-06T00:35:02;14.90;99.90
21090;DHT22;10703;51.020;6.128;2023-08-06T00:37:30;14.80;99.90
21090;DHT22;10703;51.020;6.128;2023-08-06T00:39:57;14.70;99.90
21090;DHT22;10703;51.020;6.128;2023-08-06T00:42:23;14.70;99.90
21090;DHT22;10703;51.020;6.128;2023-08-06T00:44:50;14.60;99.90
21090;DHT22;10703;51.020;6.128;2023-08-06T00:47:17;14.50;99.90
21090;DHT22;10703;51.020;6.128;2023-08-06T00:49:43;14.50;99.90
21090;DHT22;10703;51.020;6.128;2023-08-06T00:52:10;14.40;99.90
21090;DHT22;10703;51.020;6.128;2023-08-06T00:54:37;14.40;99.90
21090;DHT22;10703;51.020;6.128;2023-08-06T00:57:04;14.40;99.90
21090;DHT22;10703;51.020;6.128;2023-08-06T00:59:33;14.40;99.90
21090;DHT22;10703;51.020;6.128;2023-08-06T01:02:01;14.40;99.90
21090;DHT22;10703;51.020;6.128;2023-08-06T01:04:27;14.40;99.90
21090;DHT22;10703;51.020;6.128;2023-08-06T01:15:37;14.40;99.90
21090;DHT22;10703;51.020;6.128;2023-08-06T01:18:05;14.40;99.90
21090;DHT22;10703;51.020;6.128;2023-08-06T01:20:32;14.40;99.90
21090;DHT22;10703;51.020;6.128;2023-08-06T01:22:59;14.40;99.90
21090;DHT22;10703;51.020;6.128;2023-08-06T01:28:40;14.30;99.90
21090;DHT22;10703;51.020;6.128;2023-08-06T01:31:11;14.30;99.90
21090;DHT22;10703;51.020;6.128;2023-08-06T01:33:43;14.20;99.90
21090;DHT22;10703;51.020;6.128;2023-08-06T01:36:11;14.30;99.90
21090;DHT22;10703;51.020;6.128;2023-08-06T01:38:38;14.20;99.90
21090;DHT22;10703;51.020;6.128;2023-08-06T01:41:05;14.30;99.90
21090;DHT22;10703;51.020;6.128;2023-08-06T01:43:31;14.10;99.90
21090;DHT22;10703;51.020;6.128;2023-08-06T01:45:58;14.10;99.90
21090;DHT22;10703;51.020;6.128;2023-08-06T01:48:25;14.10;99.90
21090;DHT22;10703;51.020;6.128;2023-08-06T01:50:51;14.10;99.90
21090;DHT22;10703;51.020;6.128;2023-08-06T01:53:18;14.00;99.90
21090;DHT22;10703;51.020;6.128;2023-08-06T01:55:50;14.00;99.90
21090;DHT22;10703;51.020;6.128;2023-08-06T01:58:17;14.00;99.90
21090;DHT22;10703;51.020;6.128;2023-08-06T02:00:44;14.00;99.90
21090;DHT22;10703;51.020;6.128;2023-08-06T02:03:10;14.00;99.90
21090;DHT22;10703;51.020;6.128;2023-08-06T02:05:37;14.10;99.90
21090;DHT22;10703;51.020;6.128;2023-08-06T02:08:04;14.10;99.90
21090;DHT22;10703;51.020;6.128;2023-08-06T02:10:30;14.20;99.90
21090;DHT22;10703;51.020;6.128;2023-08-06T02:12:57;14.30;99.90
21090;DHT22;10703;51.020;6.128;2023-08-06T02:15:24;14.30;99.90
21090;DHT22;10703;51.020;6.128;2023-08-06T02:17:50;14.40;99.90
21090;DHT22;10703;51.020;6.128;2023-08-06T02:20:17;14.40;99.90
21090;DHT22;10703;51.020;6.128;2023-08-06T02:22:43;14.40;99.90
21090;DHT22;10703;51.020;6.128;2023-08-06T02:25:10;14.50;99.90
21090;DHT22;10703;51.020;6.128;2023-08-06T02:27:37;14.50;99.90
21090;DHT22;10703;51.020;6.128;2023-08-06T02:30:05;14.50;99.90
21090;DHT22;10703;51.020;6.128;2023-08-06T02:32:31;14.50;99.90
21090;DHT22;10703;51.020;6.128;2023-08-06T02:34:59;14.60;99.90
21090;DHT22;10703;51.020;6.128;2023-08-06T02:37:26;14.60;99.90
21090;DHT22;10703;51.020;6.128;2023-08-06T02:39:52;14.50;99.90
21090;DHT22;10703;51.020;6.128;2023-08-06T02:42:19;14.50;99.90
21090;DHT22;10703;51.020;6.128;2023-08-06T02:44:45;14.50;99.90
21090;DHT22;10703;51.020;6.128;2023-08-06T02:47:12;14.50;99.90
21090;DHT22;10703;51.020;6.128;2023-08-06T02:49:39;14.40;99.90
21090;DHT22;10703;51.020;6.128;2023-08-06T02:52:06;14.40;99.90
21090;DHT22;10703;51.020;6.128;2023-08-06T02:54:32;14.40;99.90
21090;DHT22;10703;51.020;6.128;2023-08-06T02:56:59;14.30;99.90
21090;DHT22;10703;51.020;6.128;2023-08-06T02:59:26;14.40;99.90
21090;DHT22;10703;51.020;6.128;2023-08-06T03:01:52;14.30;99.90
21090;DHT22;10703;51.020;6.128;2023-08-06T03:04:20;14.30;99.90
21090;DHT22;10703;51.020;6.128;2023-08-06T03:06:46;14.30;99.90
21090;DHT22;10703;51.020;6.128;2023-08-06T03:09:13;14.30;99.90
21090;DHT22;10703;51.020;6.128;2023-08-06T03:11:40;14.40;99.90
21090;DHT22;10703;51.020;6.128;2023-08-06T03:14:06;14.40;99.90
21090;DHT22;10703;51.020;6.128;2023-08-06T03:16:33;14.40;99.90
21090;DHT22;10703;51.020;6.128;2023-08-06T03:19:00;14.30;99.90
21090;DHT22;10703;51.020;6.128;2023-08-06T03:21:27;14.40;99.90
21090;DHT22;10703;51.020;6.128;2023-08-06T03:23:53;14.30;99.90
21090;DHT22;10703;51.020;6.128;2023-08-06T03:26:20;14.40;99.90
21090;DHT22;10703;51.020;6.128;2023-08-06T03:28:47;14.40;99.90
21090;DHT22;10703;51.020;6.128;2023-08-06T03:31:14;14.30;99.90
21090;DHT22;10703;51.020;6.128;2023-08-06T03:33:40;14.30;99.90
21090;DHT22;10703;51.020;6.128;2023-08-06T03:36:07;14.40;99.90
21090;DHT22;10703;51.020;6.128;2023-08-06T03:38:33;14.30;99.90
21090;DHT22;10703;51.020;6.128;2023-08-06T03:41:00;14.30;99.90
21090;DHT22;10703;51.020;6.128;2023-08-06T03:43:27;14.40;99.90
21090;DHT22;10703;51.020;6.128;2023-08-06T03:45:53;14.30;99.90
21090;DHT22;10703;51.020;6.128;2023-08-06T03:48:20;14.30;99.90
21090;DHT22;10703;51.020;6.128;2023-08-06T03:50:46;14.30;99.90
21090;DHT22;10703;51.020;6.128;2023-08-06T03:53:13;14.30;99.90
21090;DHT22;10703;51.020;6.128;2023-08-06T03:55:40;14.30;99.90
21090;DHT22;10703;51.020;6.128;2023-08-06T03:58:06;14.30;99.90
21090;DHT22;10703;51.020;6.128;2023-08-06T04:00:33;14.30;99.90
21090;DHT22;10703;51.020;6.128;2023-08-06T04:03:00;14.30;99.90
21090;DHT22;10703;51.020;6.128;2023-08-06T04:05:27;14.30;99.90
21090;DHT22;10703;51.020;6.128;2023-08-06T04:07:53;14.20;99.90
21090;DHT22;10703;51.020;6.128;2023-08-06T04:10:20;14.20;99.90
21090;DHT22;10703;51.020;6.128;2023-08-06T04:12:47;14.30;99.90
21090;DHT22;10703;51.020;6.128;2023-08-06T04:15:14;14.30;99.90
21090;DHT22;10703;51.020;6.128;2023-08-06T04:17:41;14.30;99.90
21090;DHT22;10703;51.020;6.128;2023-08-06T04:20:08;14.30;99.90
21090;DHT22;10703;51.020;6.128;2023-08-06T04:22:34;14.30;99.90
21090;DHT22;10703;51.020;6.128;2023-08-06T04:25:01;14.30;99.90
21090;DHT22;10703;51.020;6.128;2023-08-06T04:27:28;14.30;99.90
21090;DHT22;10703;51.020;6.128;2023-08-06T04:29:54;14.30;99.90
21090;DHT22;10703;51.020;6.128;2023-08-06T04:32:21;14.30;99.90
21090;DHT22;10703;51.020;6.128;2023-08-06T04:34:48;14.20;99.90
21090;DHT22;10703;51.020;6.128;2023-08-06T04:37:14;14.30;99.90
21090;DHT22;10703;51.020;6.128;2023-08-06T04:39:41;14.30;99.90
21090;DHT22;10703;51.020;6.128;2023-08-06T04:42:08;14.30;99.90
21090;DHT22;10703;51.020;6.128;2023-08-06T04:44:34;14.40;99.90
21090;DHT22;10703;51.020;6.128;2023-08-06T04:47:01;14.40;99.90
21090;DHT22;10703;51.020;6.128;2023-08-06T04:49:27;14.40;99.90
21090;DHT22;10703;51.020;6.128;2023-08-06T04:51:54;14.40;99.90
21090;DHT22;10703;51.020;6.128;2023-08-06T04:54:21;14.40;99.90
21090;DHT22;10703;51.020;6.128;2023-08-06T04:56:48;14.50;99.90
21090;DHT22;10703;51.020;6.128;2023-08-06T04:59:14;14.50;99.90
21090;DHT22;10703;51.020;6.128;2023-08-06T05:01:41;14.60;99.90
21090;DHT22;10703;51.020;6.128;2023-08-06T05:04:07;14.60;99.90
21090;DHT22;10703;51.020;6.128;2023-08-06T05:06:34;14.60;99.90
21090;DHT22;10703;51.020;6.128;2023-08-06T05:09:01;14.50;99.90
21090;DHT22;10703;51.020;6.128;2023-08-06T05:11:27;14.50;99.90
21090;DHT22;10703;51.020;6.128;2023-08-06T05:13:54;14.50;99.90
21090;DHT22;10703;51.020;6.128;2023-08-06T05:16:20;14.50;99.90
21090;DHT22;10703;51.020;6.128;2023-08-06T05:18:47;14.50;99.90
21090;DHT22;10703;51.020;6.128;2023-08-06T05:21:14;14.50;99.90
21090;DHT22;10703;51.020;6.128;2023-08-06T05:23:40;14.50;99.90
21090;DHT22;10703;51.020;6.128;2023-08-06T05:26:07;14.50;99.90
21090;DHT22;10703;51.020;6.128;2023-08-06T05:28:34;14.50;99.90
21090;DHT22;10703;51.020;6.128;2023-08-06T05:31:04;14.60;99.90
21090;DHT22;10703;51.020;6.128;2023-08-06T05:33:31;14.60;99.90
21090;DHT22;10703;51.020;6.128;2023-08-06T05:35:58;14.60;99.90
21090;DHT22;10703;51.020;6.128;2023-08-06T05:38:25;14.50;99.90
21090;DHT22;10703;51.020;6.128;2023-08-06T05:40:51;14.50;99.90
21090;DHT22;10703;51.020;6.128;2023-08-06T05:43:18;14.60;99.90
21090;DHT22;10703;51.020;6.128;2023-08-06T05:45:45;14.60;99.90
21090;DHT22;10703;51.020;6.128;2023-08-06T05:48:13;14.70;99.90
21090;DHT22;10703;51.020;6.128;2023-08-06T05:50:39;14.70;99.90
21090;DHT22;10703;51.020;6.128;2023-08-06T05:53:06;14.80;99.90
21090;DHT22;10703;51.020;6.128;2023-08-06T05:55:33;14.80;99.90
21090;DHT22;10703;51.020;6.128;2023-08-06T05:58:00;14.80;99.90
21090;DHT22;10703;51.020;6.128;2023-08-06T06:00:27;14.90;99.90
21090;DHT22;10703;51.020;6.128;2023-08-06T06:02:53;14.90;99.90
21090;DHT22;10703;51.020;6.128;2023-08-06T06:05:20;14.90;99.90
21090;DHT22;10703;51.020;6.128;2023-08-06T06:07:47;15.00;99.90
21090;DHT22;10703;51.020;6.128;2023-08-06T06:10:13;15.10;99.90
21090;DHT22;10703;51.020;6.128;2023-08-06T06:12:40;15.10;99.90
21090;DHT22;10703;51.020;6.128;2023-08-06T06:15:07;15.10;99.90
21090;DHT22;10703;51.020;6.128;2023-08-06T06:17:34;15.20;99.90
21090;DHT22;10703;51.020;6.128;2023-08-06T06:20:01;15.20;99.90
21090;DHT22;10703;51.020;6.128;2023-08-06T06:22:30;15.30;99.90
21090;DHT22;10703;51.020;6.128;2023-08-06T06:24:57;15.20;99.90
21090;DHT22;10703;51.020;6.128;2023-08-06T06:27:23;15.30;99.90
21090;DHT22;10703;51.020;6.128;2023-08-06T06:29:50;15.30;99.90
21090;DHT22;10703;51.020;6.128;2023-08-06T06:32:18;15.30;99.90
21090;DHT22;10703;51.020;6.128;2023-08-06T06:34:45;15.30;99.90
21090;DHT22;10703;51.020;6.128;2023-08-06T06:37:12;15.40;99.90
21090;DHT22;10703;51.020;6.128;2023-08-06T06:39:38;15.40;99.90
21090;DHT22;10703;51.020;6.128;2023-08-06T06:42:05;15.40;99.90
21090;DHT22;10703;51.020;6.128;2023-08-06T06:44:32;15.50;99.90
21090;DHT22;10703;51.020;6.128;2023-08-06T06:46:58;15.50;99.90
21090;DHT22;10703;51.020;6.128;2023-08-06T06:49:25;15.50;99.90
21090;DHT22;10703;51.020;6.128;2023-08-06T06:51:51;15.50;99.90
21090;DHT22;10703;51.020;6.128;2023-08-06T06:54:18;15.50;99.90
21090;DHT22;10703;51.020;6.128;2023-08-06T06:56:45;15.50;99.90
21090;DHT22;10703;51.020;6.128;2023-08-06T06:59:12;15.50;99.90
21090;DHT22;10703;51.020;6.128;2023-08-06T07:01:38;15.50;99.90
21090;DHT22;10703;51.020;6.128;2023-08-06T07:04:05;15.60;99.90
21090;DHT22;10703;51.020;6.128;2023-08-06T07:06:32;15.60;99.90
21090;DHT22;10703;51.020;6.128;2023-08-06T07:08:59;15.60;99.90
21090;DHT22;10703;51.020;6.128;2023-08-06T07:11:25;15.60;99.90
21090;DHT22;10703;51.020;6.128;2023-08-06T07:13:58;15.50;99.90
21090;DHT22;10703;51.020;6.128;2023-08-06T07:16:25;15.50;99.90
21090;DHT22;10703;51.020;6.128;2023-08-06T07:18:53;15.40;99.90
21090;DHT22;10703;51.020;6.128;2023-08-06T07:21:20;15.40;99.90
21090;DHT22;10703;51.020;6.128;2023-08-06T07:23:47;15.50;99.90
21090;DHT22;10703;51.020;6.128;2023-08-06T07:26:17;15.40;99.90
21090;DHT22;10703;51.020;6.128;2023-08-06T07:28:43;15.40;99.90
21090;DHT22;10703;51.020;6.128;2023-08-06T07:31:11;15.30;99.90
21090;DHT22;10703;51.020;6.128;2023-08-06T07:33:41;15.40;99.90
21090;DHT22;10703;51.020;6.128;2023-08-06T07:36:12;15.30;99.90
21090;DHT22;10703;51.020;6.128;2023-08-06T07:38:40;15.20;99.90
21090;DHT22;10703;51.020;6.128;2023-08-06T07:41:07;15.20;99.90
21090;DHT22;10703;51.020;6.128;2023-08-06T07:43:33;15.10;99.90
21090;DHT22;10703;51.020;6.128;2023-08-06T07:46:02;15.00;99.90
21090;DHT22;10703;51.020;6.128;2023-08-06T07:48:29;14.90;99.90
21090;DHT22;10703;51.020;6.128;2023-08-06T07:50:55;14.90;99.90
21090;DHT22;10703;51.020;6.128;2023-08-06T07:53:23;14.90;99.90
21090;DHT22;10703;51.020;6.128;2023-08-06T07:55:50;14.80;99.90
21090;DHT22;10703;51.020;6.128;2023-08-06T07:58:18;15.30;99.90
21090;DHT22;10703;51.020;6.128;2023-08-06T08:00:45;14.80;99.90
21090;DHT22;10703;51.020;6.128;2023-08-06T08:03:12;14.70;99.90
21090;DHT22;10703;51.020;6.128;2023-08-06T08:05:43;14.50;99.90
21090;DHT22;10703;51.020;6.128;2023-08-06T08:08:12;14.40;99.90
21090;DHT22;10703;51.020;6.128;2023-08-06T08:10:39;14.40;99.90
21090;DHT22;10703;51.020;6.128;2023-08-06T08:13:06;14.30;99.90
21090;DHT22;10703;51.020;6.128;2023-08-06T08:15:33;14.30;99.90
21090;DHT22;10703;51.020;6.128;2023-08-06T08:18:00;14.30;99.90
21090;DHT22;10703;51.020;6.128;2023-08-06T08:20:27;14.30;99.90
21090;DHT22;10703;51.020;6.128;2023-08-06T08:23:02;14.30;99.90
21090;DHT22;10703;51.020;6.128;2023-08-06T08:25:28;14.30;99.90
21090;DHT22;10703;51.020;6.128;2023-08-06T08:27:57;14.40;99.90
21090;DHT22;10703;51.020;6.128;2023-08-06T08:30:24;14.30;99.90
21090;DHT22;10703;51.020;6.128;2023-08-06T08:32:53;14.10;99.90
21090;DHT22;10703;51.020;6.128;2023-08-06T08:35:19;14.00;99.90
21090;DHT22;10703;51.020;6.128;2023-08-06T08:37:50;13.90;99.90
21090;DHT22;10703;51.020;6.128;2023-08-06T08:40:18;13.90;99.90
21090;DHT22;10703;51.020;6.128;2023-08-06T08:42:45;13.90;99.90
21090;DHT22;10703;51.020;6.128;2023-08-06T08:45:15;13.90;99.90
21090;DHT22;10703;51.020;6.128;2023-08-06T08:47:42;14.00;99.90
21090;DHT22;10703;51.020;6.128;2023-08-06T08:50:10;14.00;99.90
21090;DHT22;10703;51.020;6.128;2023-08-06T08:52:38;14.00;99.90
21090;DHT22;10703;51.020;6.128;2023-08-06T08:55:07;14.00;99.90
21090;DHT22;10703;51.020;6.128;2023-08-06T08:57:37;14.00;99.90
21090;DHT22;10703;51.020;6.128;2023-08-06T09:00:04;14.00;99.90
21090;DHT22;10703;51.020;6.128;2023-08-06T09:02:32;14.00;99.90
21090;DHT22;10703;51.020;6.128;2023-08-06T09:05:01;13.90;99.90
21090;DHT22;10703;51.020;6.128;2023-08-06T09:07:33;14.00;99.90
21090;DHT22;10703;51.020;6.128;2023-08-06T09:10:04;14.00;99.90
21090;DHT22;10703;51.020;6.128;2023-08-06T09:12:33;14.00;99.90
21090;DHT22;10703;51.020;6.128;2023-08-06T09:14:59;14.00;99.90
21090;DHT22;10703;51.020;6.128;2023-08-06T09:17:28;14.00;99.90
21090;DHT22;10703;51.020;6.128;2023-08-06T09:19:55;13.90;99.90
21090;DHT22;10703;51.020;6.128;2023-08-06T09:22:23;13.90;99.90
21090;DHT22;10703;51.020;6.128;2023-08-06T09:24:49;13.90;99.90
21090;DHT22;10703;51.020;6.128;2023-08-06T09:27:16;13.90;99.90
21090;DHT22;10703;51.020;6.128;2023-08-06T09:29:44;13.90;99.90
21090;DHT22;10703;51.020;6.128;2023-08-06T09:32:12;14.00;99.90
21090;DHT22;10703;51.020;6.128;2023-08-06T09:34:41;14.00;99.90
21090;DHT22;10703;51.020;6.128;2023-08-06T09:37:10;14.10;99.90
21090;DHT22;10703;51.020;6.128;2023-08-06T09:39:39;14.10;99.90
21090;DHT22;10703;51.020;6.128;2023-08-06T09:42:07;14.00;99.90
21090;DHT22;10703;51.020;6.128;2023-08-06T09:44:34;14.10;99.90
21090;DHT22;10703;51.020;6.128;2023-08-06T09:47:08;14.20;99.90
21090;DHT22;10703;51.020;6.128;2023-08-06T09:52:02;14.30;99.90
21090;DHT22;10703;51.020;6.128;2023-08-06T09:54:28;14.30;99.90
21090;DHT22;10703;51.020;6.128;2023-08-06T09:56:56;14.40;99.90
21090;DHT22;10703;51.020;6.128;2023-08-06T09:59:23;14.50;99.90
21090;DHT22;10703;51.020;6.128;2023-08-06T10:01:51;14.50;99.90
21090;DHT22;10703;51.020;6.128;2023-08-06T10:04:20;14.60;99.90
21090;DHT22;10703;51.020;6.128;2023-08-06T10:06:52;14.70;99.90
21090;DHT22;10703;51.020;6.128;2023-08-06T10:09:19;14.60;99.90
21090;DHT22;10703;51.020;6.128;2023-08-06T10:11:50;14.70;99.90
21090;DHT22;10703;51.020;6.128;2023-08-06T10:14:44;14.70;99.90
21090;DHT22;10703;51.020;6.128;2023-08-06T10:17:12;14.80;99.90
21090;DHT22;10703;51.020;6.128;2023-08-06T10:19:39;14.90;99.90
21090;DHT22;10703;51.020;6.128;2023-08-06T10:22:17;14.90;99.90
21090;DHT22;10703;51.020;6.128;2023-08-06T10:24:55;15.10;99.90
21090;DHT22;10703;51.020;6.128;2023-08-06T10:27:32;15.30;99.90
21090;DHT22;10703;51.020;6.128;2023-08-06T10:30:41;15.30;99.90
21090;DHT22;10703;51.020;6.128;2023-08-06T10:33:10;15.40;99.90
21090;DHT22;10703;51.020;6.128;2023-08-06T10:38:14;15.90;99.90
21090;DHT22;10703;51.020;6.128;2023-08-06T10:40:48;15.90;99.90
21090;DHT22;10703;51.020;6.128;2023-08-06T10:45:55;15.80;99.90
21090;DHT22;10703;51.020;6.128;2023-08-06T10:50:58;15.70;99.90
21090;DHT22;10703;51.020;6.128;2023-08-06T10:53:25;15.70;99.90
21090;DHT22;10703;51.020;6.128;2023-08-06T10:55:52;15.60;99.90
21090;DHT22;10703;51.020;6.128;2023-08-06T10:58:18;15.50;99.90
21090;DHT22;10703;51.020;6.128;2023-08-06T11:00:46;15.60;99.90
21090;DHT22;10703;51.020;6.128;2023-08-06T11:03:12;15.60;99.90
21090;DHT22;10703;51.020;6.128;2023-08-06T11:05:39;16.70;99.90
21090;DHT22;10703;51.020;6.128;2023-08-06T11:08:06;15.60;99.90
21090;DHT22;10703;51.020;6.128;2023-08-06T11:10:33;15.70;99.90
21090;DHT22;10703;51.020;6.128;2023-08-06T11:13:01;15.90;99.90
21090;DHT22;10703;51.020;6.128;2023-08-06T11:15:30;16.10;99.90
21090;DHT22;10703;51.020;6.128;2023-08-06T11:17:58;16.10;99.90
21090;DHT22;10703;51.020;6.128;2023-08-06T11:20:24;16.00;99.90
21090;DHT22;10703;51.020;6.128;2023-08-06T11:22:51;16.10;99.90
21090;DHT22;10703;51.020;6.128;2023-08-06T11:25:20;16.30;99.90
21090;DHT22;10703;51.020;6.128;2023-08-06T11:27:48;16.40;99.90
21090;DHT22;10703;51.020;6.128;2023-08-06T11:30:15;16.40;99.90
21090;DHT22;10703;51.020;6.128;2023-08-06T11:32:45;16.30;99.90
21090;DHT22;10703;51.020;6.128;2023-08-06T11:35:14;16.70;99.90
21090;DHT22;10703;51.020;6.128;2023-08-06T11:37:47;16.40;99.90
21090;DHT22;10703;51.020;6.128;2023-08-06T11:40:15;16.10;99.90
21090;DHT22;10703;51.020;6.128;2023-08-06T11:42:41;16.00;99.90
21090;DHT22;10703;51.020;6.128;2023-08-06T11:45:09;16.00;99.90
21090;DHT22;10703;51.020;6.128;2023-08-06T11:47:38;15.90;99.90
21090;DHT22;10703;51.020;6.128;2023-08-06T11:50:08;15.80;99.90
21090;DHT22;10703;51.020;6.128;2023-08-06T11:52:39;15.80;99.90
21090;DHT22;10703;51.020;6.128;2023-08-06T11:55:07;15.70;99.90
21090;DHT22;10703;51.020;6.128;2023-08-06T11:57:37;15.60;99.90
21090;DHT22;10703;51.020;6.128;2023-08-06T12:00:08;15.70;99.90
21090;DHT22;10703;51.020;6.128;2023-08-06T12:02:35;15.50;99.90
21090;DHT22;10703;51.020;6.128;2023-08-06T12:07:38;15.50;99.90
21090;DHT22;10703;51.020;6.128;2023-08-06T12:10:05;15.50;99.90
21090;DHT22;10703;51.020;6.128;2023-08-06T12:12:33;15.40;99.90
21090;DHT22;10703;51.020;6.128;2023-08-06T12:15:00;15.40;99.90
21090;DHT22;10703;51.020;6.128;2023-08-06T12:17:27;15.50;99.90
21090;DHT22;10703;51.020;6.128;2023-08-06T12:19:54;15.60;99.90
21090;DHT22;10703;51.020;6.128;2023-08-06T12:22:20;15.60;99.90
21090;DHT22;10703;51.020;6.128;2023-08-06T12:24:50;15.70;99.90
21090;DHT22;10703;51.020;6.128;2023-08-06T12:27:17;15.70;99.90
21090;DHT22;10703;51.020;6.128;2023-08-06T12:29:45;15.90;99.90
21090;DHT22;10703;51.020;6.128;2023-08-06T12:32:12;15.90;99.90
21090;DHT22;10703;51.020;6.128;2023-08-06T12:34:40;16.10;99.90
21090;DHT22;10703;51.020;6.128;2023-08-06T12:37:19;16.10;99.90
21090;DHT22;10703;51.020;6.128;2023-08-06T12:39:46;16.10;99.90
21090;DHT22;10703;51.020;6.128;2023-08-06T12:42:13;15.90;99.90
21090;DHT22;10703;51.020;6.128;2023-08-06T12:44:39;15.90;99.90
21090;DHT22;10703;51.020;6.128;2023-08-06T12:47:10;16.00;99.90
21090;DHT22;10703;51.020;6.128;2023-08-06T12:49:36;16.10;99.90
21090;DHT22;10703;51.020;6.128;2023-08-06T12:52:03;16.00;99.90
21090;DHT22;10703;51.020;6.128;2023-08-06T12:54:32;16.10;99.90
21090;DHT22;10703;51.020;6.128;2023-08-06T12:57:05;16.20;99.90
21090;DHT22;10703;51.020;6.128;2023-08-06T12:59:32;16.20;99.90
21090;DHT22;10703;51.020;6.128;2023-08-06T13:02:03;16.10;99.90
21090;DHT22;10703;51.020;6.128;2023-08-06T13:04:30;15.90;99.90
21090;DHT22;10703;51.020;6.128;2023-08-06T13:06:58;15.80;99.90
21090;DHT22;10703;51.020;6.128;2023-08-06T13:09:24;15.70;99.90
21090;DHT22;10703;51.020;6.128;2023-08-06T13:11:52;15.50;99.90
21090;DHT22;10703;51.020;6.128;2023-08-06T13:14:19;15.50;99.90
21090;DHT22;10703;51.020;6.128;2023-08-06T13:16:46;15.60;99.90
21090;DHT22;10703;51.020;6.128;2023-08-06T13:19:13;15.60;99.90
21090;DHT22;10703;51.020;6.128;2023-08-06T13:24:07;16.10;99.90
21090;DHT22;10703;51.020;6.128;2023-08-06T13:26:34;15.60;99.90
21090;DHT22;10703;51.020;6.128;2023-08-06T13:29:02;15.60;99.90
21090;DHT22;10703;51.020;6.128;2023-08-06T13:31:29;15.60;99.90
21090;DHT22;10703;51.020;6.128;2023-08-06T13:33:56;15.70;99.90
21090;DHT22;10703;51.020;6.128;2023-08-06T13:36:25;15.70;99.90
21090;DHT22;10703;51.020;6.128;2023-08-06T13:38:52;15.70;99.90
21090;DHT22;10703;51.020;6.128;2023-08-06T13:41:19;15.80;99.90
21090;DHT22;10703;51.020;6.128;2023-08-06T13:43:46;15.90;99.90
21090;DHT22;10703;51.020;6.128;2023-08-06T13:46:13;16.00;99.90
21090;DHT22;10703;51.020;6.128;2023-08-06T13:48:44;16.00;99.90
21090;DHT22;10703;51.020;6.128;2023-08-06T13:51:12;16.00;99.90
21090;DHT22;10703;51.020;6.128;2023-08-06T13:53:39;16.00;99.90
21090;DHT22;10703;51.020;6.128;2023-08-06T13:56:07;16.10;99.90
21090;DHT22;10703;51.020;6.128;2023-08-06T13:58:33;16.10;99.90
21090;DHT22;10703;51.020;6.128;2023-08-06T14:01:00;16.10;99.90
21090;DHT22;10703;51.020;6.128;2023-08-06T14:03:27;16.10;99.90
21090;DHT22;10703;51.020;6.128;2023-08-06T14:05:54;16.10;99.90
21090;DHT22;10703;51.020;6.128;2023-08-06T14:08:24;16.00;99.90
21090;DHT22;10703;51.020;6.128;2023-08-06T14:10:52;15.80;99.90
21090;DHT22;10703;51.020;6.128;2023-08-06T14:13:18;15.80;99.90
21090;DHT22;10703;51.020;6.128;2023-08-06T14:15:45;16.00;99.90
21090;DHT22;10703;51.020;6.128;2023-08-06T14:18:16;15.90;99.90
21090;DHT22;10703;51.020;6.128;2023-08-06T14:20:43;16.00;99.90
21090;DHT22;10703;51.020;6.128;2023-08-06T14:23:10;16.00;99.90
21090;DHT22;10703;51.020;6.128;2023-08-06T14:25:38;16.00;99.90
21090;DHT22;10703;51.020;6.128;2023-08-06T14:28:05;15.90;99.90
21090;DHT22;10703;51.020;6.128;2023-08-06T14:30:33;16.00;99.90
21090;DHT22;10703;51.020;6.128;2023-08-06T14:33:00;16.00;99.90
21090;DHT22;10703;51.020;6.128;2023-08-06T14:35:46;16.20;99.90
21090;DHT22;10703;51.020;6.128;2023-08-06T14:38:13;16.30;99.90
21090;DHT22;10703;51.020;6.128;2023-08-06T14:40:40;16.30;99.90
21090;DHT22;10703;51.020;6.128;2023-08-06T14:43:07;16.20;99.90
21090;DHT22;10703;51.020;6.128;2023-08-06T14:45:36;16.10;99.90
21090;DHT22;10703;51.020;6.128;2023-08-06T14:48:03;16.00;99.90
21090;DHT22;10703;51.020;6.128;2023-08-06T14:50:30;15.80;99.90
21090;DHT22;10703;51.020;6.128;2023-08-06T14:52:56;15.70;99.90
21090;DHT22;10703;51.020;6.128;2023-08-06T14:55:25;15.60;99.90
21090;DHT22;10703;51.020;6.128;2023-08-06T14:57:52;15.70;99.90
21090;DHT22;10703;51.020;6.128;2023-08-06T15:00:21;15.90;99.90
21090;DHT22;10703;51.020;6.128;2023-08-06T15:02:48;16.00;99.90
21090;DHT22;10703;51.020;6.128;2023-08-06T15:05:15;16.10;99.90
21090;DHT22;10703;51.020;6.128;2023-08-06T15:07:41;16.10;99.90
21090;DHT22;10703;51.020;6.128;2023-08-06T15:10:08;16.00;99.90
21090;DHT22;10703;51.020;6.128;2023-08-06T15:12:52;16.00;99.90
21090;DHT22;10703;51.020;6.128;2023-08-06T15:15:19;15.90;99.90
21090;DHT22;10703;51.020;6.128;2023-08-06T15:17:45;15.90;99.90
21090;DHT22;10703;51.020;6.128;2023-08-06T15:20:13;15.90;99.90
21090;DHT22;10703;51.020;6.128;2023-08-06T15:22:39;15.80;99.90
21090;DHT22;10703;51.020;6.128;2023-08-06T15:25:06;15.80;99.90
21090;DHT22;10703;51.020;6.128;2023-08-06T15:27:33;15.80;99.90
21090;DHT22;10703;51.020;6.128;2023-08-06T15:30:06;15.80;99.90
21090;DHT22;10703;51.020;6.128;2023-08-06T15:32:33;16.00;99.90
21090;DHT22;10703;51.020;6.128;2023-08-06T15:34:59;16.00;99.90
21090;DHT22;10703;51.020;6.128;2023-08-06T15:37:26;16.00;99.90
21090;DHT22;10703;51.020;6.128;2023-08-06T15:39:53;16.50;99.90
21090;DHT22;10703;51.020;6.128;2023-08-06T15:42:20;16.20;99.90
21090;DHT22;10703;51.020;6.128;2023-08-06T15:44:47;16.00;99.90
21090;DHT22;10703;51.020;6.128;2023-08-06T15:47:14;16.00;99.90
21090;DHT22;10703;51.020;6.128;2023-08-06T15:49:41;15.90;99.90
21090;DHT22;10703;51.020;6.128;2023-08-06T15:52:07;16.00;99.90
21090;DHT22;10703;51.020;6.128;2023-08-06T15:54:34;15.90;99.90
21090;DHT22;10703;51.020;6.128;2023-08-06T15:57:01;15.90;99.90
21090;DHT22;10703;51.020;6.128;2023-08-06T15:59:32;15.90;99.90